地図

経路データ

SID SEASON NUMBER BASIN SUBBASIN NAME ISO_TIME NATURE LAT LON WMO_WIND WMO_PRES WMO_AGENCY TRACK_TYPE DIST2LAND LANDFALL IFLAG USA_AGENCY USA_ATCF_ID USA_LAT USA_LON USA_RECORD USA_STATUS USA_WIND USA_PRES USA_SSHS USA_R34_NE USA_R34_SE USA_R34_SW USA_R34_NW USA_R50_NE USA_R50_SE USA_R50_SW USA_R50_NW USA_R64_NE USA_R64_SE USA_R64_SW USA_R64_NW USA_POCI USA_ROCI USA_RMW USA_EYE TOKYO_LAT TOKYO_LON TOKYO_GRADE TOKYO_WIND TOKYO_PRES TOKYO_R50_DIR TOKYO_R50_LONG TOKYO_R50_SHORT TOKYO_R30_DIR TOKYO_R30_LONG TOKYO_R30_SHORT TOKYO_LAND CMA_LAT CMA_LON CMA_CAT CMA_WIND CMA_PRES HKO_LAT HKO_LON HKO_CAT HKO_WIND HKO_PRES NEWDELHI_LAT NEWDELHI_LON NEWDELHI_GRADE NEWDELHI_WIND NEWDELHI_PRES NEWDELHI_CI NEWDELHI_DP NEWDELHI_POCI REUNION_LAT REUNION_LON REUNION_TYPE REUNION_WIND REUNION_PRES REUNION_TNUM REUNION_CI REUNION_RMW REUNION_R34_NE REUNION_R34_SE REUNION_R34_SW REUNION_R34_NW REUNION_R50_NE REUNION_R50_SE REUNION_R50_SW REUNION_R50_NW REUNION_R64_NE REUNION_R64_SE REUNION_R64_SW REUNION_R64_NW BOM_LAT BOM_LON BOM_TYPE BOM_WIND BOM_PRES BOM_TNUM BOM_CI BOM_RMW BOM_R34_NE BOM_R34_SE BOM_R34_SW BOM_R34_NW BOM_R50_NE BOM_R50_SE BOM_R50_SW BOM_R50_NW BOM_R64_NE BOM_R64_SE BOM_R64_SW BOM_R64_NW BOM_ROCI BOM_POCI BOM_EYE BOM_POS_METHOD BOM_PRES_METHOD NADI_LAT NADI_LON NADI_CAT NADI_WIND NADI_PRES WELLINGTON_LAT WELLINGTON_LON WELLINGTON_WIND WELLINGTON_PRES DS824_LAT DS824_LON DS824_STAGE DS824_WIND DS824_PRES TD9636_LAT TD9636_LON TD9636_STAGE TD9636_WIND TD9636_PRES TD9635_LAT TD9635_LON TD9635_WIND TD9635_PRES TD9635_ROCI NEUMANN_LAT NEUMANN_LON NEUMANN_CLASS NEUMANN_WIND NEUMANN_PRES MLC_LAT MLC_LON MLC_CLASS MLC_WIND MLC_PRES USA_GUST BOM_GUST BOM_GUST_PER REUNION_GUST REUNION_GUST_PER USA_SEAHGT USA_SEARAD_NE USA_SEARAD_SE USA_SEARAD_SW USA_SEARAD_NW STORM_SPEED STORM_DIR
1984260N14339 1984 81 NA NA FRAN 1984-09-15 12:00:00 TS 13.7000 -21.3000 25 1010 hurdat_atl main 424 424 O_____________ hurdat_atl AL121984 13.7000 -21.3000 TD 25 1010 -1 7 278
1984260N14339 1984 81 NA NA FRAN 1984-09-15 15:00:00 TS 13.7501 -21.6500 main 453 453 P_____________ AL121984 13.7501 -21.6500 TD 25 1010 -1 7 278
1984260N14339 1984 81 NA NA FRAN 1984-09-15 18:00:00 TS 13.8000 -22.0000 25 1010 hurdat_atl main 495 495 O_____________ hurdat_atl AL121984 13.8000 -22.0000 TD 25 1010 -1 7 278
1984260N14339 1984 81 NA NA FRAN 1984-09-15 21:00:00 TS 13.8500 -22.3500 main 537 535 P_____________ AL121984 13.8500 -22.3500 TD 27 1010 -1 7 278
1984260N14339 1984 81 NA NA FRAN 1984-09-16 00:00:00 TS 13.9000 -22.7000 30 1010 hurdat_atl main 567 567 O_____________ hurdat_atl AL121984 13.9000 -22.7000 TD 30 1010 -1 7 277
1984260N14339 1984 81 NA NA FRAN 1984-09-16 03:00:00 TS 13.9349 -23.0501 main 610 610 P_____________ AL121984 13.9349 -23.0501 TD 30 1009 -1 7 278
1984260N14339 1984 81 NA NA FRAN 1984-09-16 06:00:00 TS 14.0000 -23.4000 30 1009 hurdat_atl main 640 640 O_____________ hurdat_atl AL121984 14.0000 -23.4000 TD 30 1009 -1 7 285
1984260N14339 1984 81 NA NA FRAN 1984-09-16 09:00:00 TS 14.1200 -23.7500 main 682 680 P_____________ AL121984 14.1200 -23.7500 TD 30 1008 -1 7 294
1984260N14339 1984 81 NA NA FRAN 1984-09-16 12:00:00 TS 14.3000 -24.1000 30 1008 hurdat_atl main 712 712 O_____________ hurdat_atl AL121984 14.3000 -24.1000 TD 30 1008 -1 8 301
1984260N14339 1984 81 NA NA FRAN 1984-09-16 15:00:00 TS 14.5350 -24.4650 main 753 753 P_____________ AL121984 14.5350 -24.4650 TD 32 1007 -1 8 306
1984260N14339 1984 81 NA NA FRAN 1984-09-16 18:00:00 TS 14.8000 -24.8000 35 1006 hurdat_atl main 785 785 O_____________ hurdat_atl AL121984 14.8000 -24.8000 TS 35 1006 0 7 310
1984260N14339 1984 81 NA NA FRAN 1984-09-16 21:00:00 TS 15.0124 -25.0503 main 817 817 P_____________ AL121984 15.0124 -25.0503 TS 40 1003 0 7 316
1984260N14339 1984 81 NA NA FRAN 1984-09-17 00:00:00 TS 15.3000 -25.3000 45 1000 hurdat_atl main 840 840 O_____________ hurdat_atl AL121984 15.3000 -25.3000 TS 45 1000 0 10 322
1984260N14339 1984 81 NA NA FRAN 1984-09-17 03:00:00 TS 15.7626 -25.6498 main 877 877 P_____________ AL121984 15.7626 -25.6498 TS 47 999 0 12 326
1984260N14339 1984 81 NA NA FRAN 1984-09-17 06:00:00 TS 16.3000 -26.0000 50 998 hurdat_atl main 928 928 O_____________ hurdat_atl AL121984 16.3000 -26.0000 TS 50 998 0 12 330
1984260N14339 1984 81 NA NA FRAN 1984-09-17 09:00:00 TS 16.7924 -26.2578 main 970 970 P_____________ AL121984 16.7924 -26.2578 TS 50 997 0 11 334
1984260N14339 1984 81 NA NA FRAN 1984-09-17 12:00:00 TS 17.3000 -26.5000 50 996 hurdat_atl main 1005 1005 O_____________ hurdat_atl AL121984 17.3000 -26.5000 TS 50 996 0 12 335
1984260N14339 1984 81 NA NA FRAN 1984-09-17 15:00:00 TS 17.8424 -26.7703 main 1051 1051 P_____________ AL121984 17.8424 -26.7703 TS 52 995 0 12 333
1984260N14339 1984 81 NA NA FRAN 1984-09-17 18:00:00 TS 18.4000 -27.1000 55 995 hurdat_atl main 1081 1078 O_____________ hurdat_atl AL121984 18.4000 -27.1000 TS 55 995 0 13 330
1984260N14339 1984 81 NA NA FRAN 1984-09-17 21:00:00 TS 18.9795 -27.4752 main 1105 1103 P_____________ AL121984 18.9795 -27.4752 TS 55 994 0 14 322
1984260N14339 1984 81 NA NA FRAN 1984-09-18 00:00:00 TS 19.5000 -28.0000 55 994 hurdat_atl main 1146 1146 O_____________ hurdat_atl AL121984 19.5000 -28.0000 TS 55 994 0 15 307
1984260N14339 1984 81 NA NA FRAN 1984-09-18 03:00:00 TS 19.8804 -28.7627 main 1223 1223 P_____________ AL121984 19.8804 -28.7627 TS 55 994 0 17 295
1984260N14339 1984 81 NA NA FRAN 1984-09-18 06:00:00 TS 20.2000 -29.6000 55 994 hurdat_atl main 1303 1303 O_____________ hurdat_atl AL121984 20.2000 -29.6000 TS 55 994 0 16 296
1984260N14339 1984 81 NA NA FRAN 1984-09-18 09:00:00 TS 20.5866 -30.2850 main 1372 1372 P_____________ AL121984 20.5866 -30.2850 TS 55 994 0 15 298
1984260N14339 1984 81 NA NA FRAN 1984-09-18 12:00:00 TS 20.9000 -31.0000 55 994 hurdat_atl main 1443 1443 O_____________ hurdat_atl AL121984 20.9000 -31.0000 TS 55 994 0 16 287
1984260N14339 1984 81 NA NA FRAN 1984-09-18 15:00:00 TS 21.0528 -31.8928 main 1536 1536 P_____________ AL121984 21.0528 -31.8928 TS 52 994 0 17 277
1984260N14339 1984 81 NA NA FRAN 1984-09-18 18:00:00 TS 21.1000 -32.8000 50 995 hurdat_atl main 1629 1629 O_____________ hurdat_atl AL121984 21.1000 -32.8000 TS 50 995 0 16 273
1984260N14339 1984 81 NA NA FRAN 1984-09-18 21:00:00 TS 21.1216 -33.5576 main 1712 1712 P_____________ AL121984 21.1216 -33.5576 TS 50 995 0 14 270
1984260N14339 1984 81 NA NA FRAN 1984-09-19 00:00:00 TS 21.1000 -34.3000 50 996 hurdat_atl main 1785 1785 O_____________ hurdat_atl AL121984 21.1000 -34.3000 TS 50 996 0 15 267
1984260N14339 1984 81 NA NA FRAN 1984-09-19 03:00:00 TS 21.0571 -35.1201 main 1868 1868 P_____________ AL121984 21.0571 -35.1201 TS 50 998 0 16 266
1984260N14339 1984 81 NA NA FRAN 1984-09-19 06:00:00 TS 21.0000 -36.0000 50 1000 hurdat_atl main 1961 1961 O_____________ hurdat_atl AL121984 21.0000 -36.0000 TS 50 1000 0 17 266
1984260N14339 1984 81 NA NA FRAN 1984-09-19 09:00:00 TS 20.9501 -36.9575 main 2065 2065 P_____________ AL121984 20.9501 -36.9575 TS 47 1002 0 18 267
1984260N14339 1984 81 NA NA FRAN 1984-09-19 12:00:00 TS 20.9000 -37.9000 45 1005 hurdat_atl main 2159 2159 O_____________ hurdat_atl AL121984 20.9000 -37.9000 TS 45 1005 0 17 267
1984260N14339 1984 81 NA NA FRAN 1984-09-19 15:00:00 TS 20.8647 -38.7522 main 2252 2245 P_____________ AL121984 20.8647 -38.7522 TS 42 1005 0 15 266
1984260N14339 1984 81 NA NA FRAN 1984-09-19 18:00:00 TS 20.8000 -39.5000 40 1005 hurdat_atl main 2245 2198 O_____________ hurdat_atl AL121984 20.8000 -39.5000 TS 40 1005 0 13 261
1984260N14339 1984 81 NA NA FRAN 1984-09-19 21:00:00 TS 20.6644 -40.1225 main 2198 2142 P_____________ AL121984 20.6644 -40.1225 TS 37 1005 0 12 255
1984260N14339 1984 81 NA NA FRAN 1984-09-20 00:00:00 TS 20.5000 -40.7000 35 1006 hurdat_atl main 2142 2094 O_____________ hurdat_atl AL121984 20.5000 -40.7000 TS 35 1006 0 12 255
1984260N14339 1984 81 NA NA FRAN 1984-09-20 03:00:00 TS 20.3426 -41.3650 main 2079 2033 P_____________ AL121984 20.3426 -41.3650 TS 32 1007 -1 13 256
1984260N14339 1984 81 NA NA FRAN 1984-09-20 06:00:00 TS 20.2000 -42.0000 30 1008 hurdat_atl main 2033 1994 O_____________ hurdat_atl AL121984 20.2000 -42.0000 TD 30 1008 -1 11 257
1984260N14339 1984 81 NA NA FRAN 1984-09-20 09:00:00 TS 20.0901 -42.5325 main 1994 1955 P_____________ AL121984 20.0901 -42.5325 TD 27 1008 -1 10 258
1984260N14339 1984 81 NA NA FRAN 1984-09-20 12:00:00 TS 20.0000 -43.0000 25 1009 hurdat_atl main 1955 O_____________ hurdat_atl AL121984 20.0000 -43.0000 TD 25 1009 -1 9 258

IBTrACS Databaseについて

本データベースは、米国NOAAが公開する1842年以降の世界の熱帯低気圧のベストトラックデータアーカイブInternational Best Track Archive for Climate Stewardship (IBTrACS)を、ウェブで閲覧しやすい形式に変換したものです。

最終更新日:2021-10-25